Time;durP1;ratioP1;P1;durP2;ratioP2;P2;SDS_P1;SDS_P2;PMS_P1;PMS_P2;Temp;Humidity;BMP_temperature;BMP_pressure;BME280_temperature;BME280_humidity;BME280_pressure;Samples;Min_cycle;Max_cycle;Signal;HPM_P1;HPM_P2
2021/06/29 00:03:48;;;;;;;5.47;3.00;;;;;;;;;;10486412;28;20248;-74
2021/06/29 00:08:50;;;;;;;6.03;3.20;;;;;;;;;;10487830;28;20299;-74
2021/06/29 00:13:58;;;;;;;6.30;3.03;;;;;;;;;;10487161;28;20231;-71
2021/06/29 00:19:01;;;;;;;6.23;3.20;;;;;;;;;;10486321;28;20595;-73
2021/06/29 00:24:04;;;;;;;6.10;3.57;;;;;;;;;;10487059;28;20196;-74
2021/06/29 00:29:08;;;;;;;5.37;3.40;;;;;;;;;;10488161;28;20552;-74
2021/06/29 00:34:10;;;;;;;7.07;3.53;;;;;;;;;;10479180;28;20289;-72
2021/06/29 00:39:13;;;;;;;6.07;3.33;;;;;;;;;;10484698;28;20211;-72
2021/06/29 00:44:20;;;;;;;5.23;3.30;;;;;;;;;;10487701;28;20185;-72
2021/06/29 00:49:23;;;;;;;7.90;3.60;;;;;;;;;;10485777;28;20224;-75
2021/06/29 00:54:25;;;;;;;8.40;3.67;;;;;;;;;;10485093;28;20266;-73
2021/06/29 00:59:29;;;;;;;6.37;3.43;;;;;;;;;;10486617;28;20313;-73
2021/06/29 01:04:32;;;;;;;5.87;3.30;;;;;;;;;;10482545;28;20234;-74
2021/06/29 01:09:35;;;;;;;5.57;3.30;;;;;;;;;;10484779;28;20220;-72
2021/06/29 01:14:39;;;;;;;6.67;3.57;;;;;;;;;;10486411;28;20275;-74
2021/06/29 01:19:45;;;;;;;7.20;3.70;;;;;;;;;;10482032;28;20248;-72
2021/06/29 01:24:51;;;;;;;7.43;3.87;;;;;;;;;;10485845;28;20627;-73
2021/06/29 01:35:10;;;;;;;7.30;3.73;;;;;;;;;;10481213;28;20288;-73
2021/06/29 01:40:18;;;;;;;6.43;3.97;;;;;;;;;;10480417;28;20224;-72
2021/06/29 01:45:20;;;;;;;7.67;4.23;;;;;;;;;;10486837;28;20192;-72
2021/06/29 01:50:23;;;;;;;6.37;3.77;;;;;;;;;;10480271;28;20251;-75
2021/06/29 01:55:28;;;;;;;7.17;3.80;;;;;;;;;;10480692;28;20192;-74
2021/06/29 02:00:30;;;;;;;6.83;4.30;;;;;;;;;;10480365;28;20216;-73
2021/06/29 02:05:33;;;;;;;6.37;3.77;;;;;;;;;;10482146;28;20266;-73
2021/06/29 02:10:37;;;;;;;6.83;4.03;;;;;;;;;;10484206;28;20219;-71
2021/06/29 02:15:39;;;;;;;7.10;3.73;;;;;;;;;;10484138;28;20295;-72
2021/06/29 02:20:42;;;;;;;6.07;3.87;;;;;;;;;;10475775;28;20208;-69
2021/06/29 02:25:46;;;;;;;6.40;3.80;;;;;;;;;;10481500;28;20545;-69
2021/06/29 02:30:48;;;;;;;7.37;3.40;;;;;;;;;;10484869;28;20216;-69
2021/06/29 02:35:51;;;;;;;5.07;3.23;;;;;;;;;;10483761;28;20196;-69
2021/06/29 02:40:55;;;;;;;5.33;3.23;;;;;;;;;;10484553;28;20240;-70
2021/06/29 02:45:58;;;;;;;6.20;3.67;;;;;;;;;;10483303;28;20517;-70
2021/06/29 02:51:00;;;;;;;7.47;3.60;;;;;;;;;;10487863;28;20644;-72
2021/06/29 02:56:05;;;;;;;5.50;3.43;;;;;;;;;;10489983;28;20551;-73
2021/06/29 03:01:07;;;;;;;6.00;3.53;;;;;;;;;;10490442;28;20249;-73
2021/06/29 03:06:10;;;;;;;6.93;3.53;;;;;;;;;;10486437;28;20188;-72
2021/06/29 03:11:14;;;;;;;7.43;3.80;;;;;;;;;;10490358;28;20216;-72
2021/06/29 03:16:16;;;;;;;5.67;3.40;;;;;;;;;;10489928;28;20291;-72
2021/06/29 03:21:19;;;;;;;5.60;3.23;;;;;;;;;;10489370;28;20230;-71
2021/06/29 03:26:23;;;;;;;6.10;3.80;;;;;;;;;;10490841;28;20197;-72
2021/06/29 03:31:26;;;;;;;9.07;3.57;;;;;;;;;;10490600;28;20381;-71
2021/06/29 03:36:29;;;;;;;6.87;3.73;;;;;;;;;;10486850;28;20200;-71
2021/06/29 03:41:33;;;;;;;6.33;3.60;;;;;;;;;;10489858;28;20217;-69
2021/06/29 03:46:36;;;;;;;7.00;3.77;;;;;;;;;;10490169;28;20251;-72
2021/06/29 03:51:39;;;;;;;6.37;3.43;;;;;;;;;;10478516;28;20208;-72
2021/06/29 03:56:43;;;;;;;6.27;3.40;;;;;;;;;;10480960;28;20308;-73
2021/06/29 04:01:46;;;;;;;5.87;3.33;;;;;;;;;;10489745;28;20215;-73
2021/06/29 04:06:49;;;;;;;5.70;3.23;;;;;;;;;;10488264;28;20219;-74
2021/06/29 04:11:52;;;;;;;6.30;3.60;;;;;;;;;;10496738;28;20316;-73
2021/06/29 04:17:15;;;;;;;6.63;3.40;;;;;;;;;;10488872;28;20212;-73
2021/06/29 04:22:39;;;;;;;5.90;3.53;;;;;;;;;;10483634;28;20239;-72
2021/06/29 04:28:03;;;;;;;6.03;3.63;;;;;;;;;;10487529;28;20690;-72
2021/06/29 04:33:05;;;;;;;5.67;3.23;;;;;;;;;;10488006;28;20220;-70
2021/06/29 04:38:08;;;;;;;6.27;3.40;;;;;;;;;;10487689;28;20210;-70
2021/06/29 04:43:12;;;;;;;5.57;3.30;;;;;;;;;;10487989;28;20227;-72
2021/06/29 04:48:16;;;;;;;5.20;2.83;;;;;;;;;;10487974;28;20635;-71
2021/06/29 04:53:18;;;;;;;5.23;2.70;;;;;;;;;;10486271;28;20261;-71
2021/06/29 04:58:22;;;;;;;4.60;2.57;;;;;;;;;;10487216;28;20600;-72
2021/06/29 05:03:26;;;;;;;4.50;2.60;;;;;;;;;;10487903;28;20212;-72
2021/06/29 05:08:29;;;;;;;4.93;2.70;;;;;;;;;;10484124;28;20680;-71
2021/06/29 05:13:32;;;;;;;5.93;2.77;;;;;;;;;;10487437;28;20266;-73
2021/06/29 05:18:35;;;;;;;10.37;3.37;;;;;;;;;;10485741;28;20261;-69
2021/06/29 05:23:38;;;;;;;7.33;3.07;;;;;;;;;;10483684;28;20196;-73
2021/06/29 05:28:42;;;;;;;4.23;2.60;;;;;;;;;;10480898;28;20181;-72
2021/06/29 05:33:45;;;;;;;12.40;3.87;;;;;;;;;;10489213;28;20663;-69
2021/06/29 05:38:47;;;;;;;8.13;3.17;;;;;;;;;;10481271;28;20613;-72
2021/06/29 05:43:51;;;;;;;6.97;2.90;;;;;;;;;;10482131;28;20275;-72
2021/06/29 05:48:54;;;;;;;6.90;2.97;;;;;;;;;;10469559;28;20219;-72
2021/06/29 05:53:57;;;;;;;5.50;2.27;;;;;;;;;;10480827;28;20208;-73
2021/06/29 05:59:01;;;;;;;4.30;2.53;;;;;;;;;;10488184;28;20216;-72
2021/06/29 06:04:04;;;;;;;6.20;3.00;;;;;;;;;;10493420;28;20203;-73
2021/06/29 06:09:06;;;;;;;5.23;2.83;;;;;;;;;;10483714;28;20251;-73
2021/06/29 06:14:10;;;;;;;6.87;3.60;;;;;;;;;;10478321;28;20215;-72
2021/06/29 06:19:13;;;;;;;6.77;3.60;;;;;;;;;;10476887;28;20270;-74
2021/06/29 06:24:15;;;;;;;6.50;3.33;;;;;;;;;;10481932;28;20272;-73
2021/06/29 06:29:19;;;;;;;9.10;3.63;;;;;;;;;;10493351;28;20251;-73
2021/06/29 06:34:21;;;;;;;8.43;3.90;;;;;;;;;;10486619;28;20290;-73
2021/06/29 06:39:24;;;;;;;6.97;3.67;;;;;;;;;;10498122;28;20267;-73
2021/06/29 06:44:28;;;;;;;5.10;3.37;;;;;;;;;;10485280;28;20690;-73
2021/06/29 06:49:30;;;;;;;8.67;3.90;;;;;;;;;;10467724;28;20235;-72
2021/06/29 06:54:33;;;;;;;4.60;2.80;;;;;;;;;;10487822;28;20581;-74
2021/06/29 06:59:37;;;;;;;7.00;3.07;;;;;;;;;;10490181;28;20220;-75
2021/06/29 07:04:40;;;;;;;6.43;2.50;;;;;;;;;;10482176;28;20207;-73
2021/06/29 07:09:42;;;;;;;6.07;2.80;;;;;;;;;;10490695;28;20741;-74
2021/06/29 07:14:46;;;;;;;4.63;2.33;;;;;;;;;;10491103;28;20200;-74
2021/06/29 07:19:49;;;;;;;5.73;2.70;;;;;;;;;;10492200;28;20299;-74
2021/06/29 07:24:51;;;;;;;4.93;2.37;;;;;;;;;;10488518;28;20668;-75
2021/06/29 07:29:55;;;;;;;3.13;2.00;;;;;;;;;;10492047;28;20220;-73
2021/06/29 07:34:57;;;;;;;3.67;2.20;;;;;;;;;;10478300;28;20331;-73
2021/06/29 07:40:00;;;;;;;3.37;1.90;;;;;;;;;;10488032;28;20251;-72
2021/06/29 07:45:06;;;;;;;2.83;1.63;;;;;;;;;;10484748;28;20223;-73
2021/06/29 07:50:10;;;;;;;2.27;1.70;;;;;;;;;;10492964;28;20244;-74
2021/06/29 07:55:13;;;;;;;2.77;1.60;;;;;;;;;;10490143;28;20200;-74
2021/06/29 08:00:17;;;;;;;3.08;1.90;;;;;;;;;;10493542;28;20224;-70
2021/06/29 08:05:19;;;;;;;4.15;2.00;;;;;;;;;;10484539;28;20201;-69
2021/06/29 08:10:22;;;;;;;2.45;1.70;;;;;;;;;;10503094;28;20296;-69
2021/06/29 08:15:27;;;;;;;3.22;1.70;;;;;;;;;;10494018;28;20301;-72
2021/06/29 08:20:29;;;;;;;1.77;1.55;;;;;;;;;;10482576;28;20283;-70
2021/06/29 08:25:33;;;;;;;2.63;2.00;;;;;;;;;;10494594;28;20176;-74
2021/06/29 08:30:37;;;;;;;6.15;2.00;;;;;;;;;;10488960;28;20220;-74
2021/06/29 08:35:40;;;;;;;3.55;1.70;;;;;;;;;;10490716;28;20288;-73
2021/06/29 08:40:45;;;;;;;4.00;1.95;;;;;;;;;;10484833;28;20552;-72
2021/06/29 08:45:51;;;;;;;2.10;1.65;;;;;;;;;;10478709;28;20210;-75
2021/06/29 08:51:10;;;;;;;2.47;1.65;;;;;;;;;;10481530;28;20315;-75
2021/06/29 08:56:18;;;;;;;3.45;1.60;;;;;;;;;;10477361;28;20227;-74
2021/06/29 09:01:22;;;;;;;2.60;1.55;;;;;;;;;;10487615;28;20295;-72
2021/06/29 09:06:31;;;;;;;1.95;1.55;;;;;;;;;;10484710;28;20193;-74
2021/06/29 09:11:35;;;;;;;2.45;1.67;;;;;;;;;;10481447;28;20220;-74
2021/06/29 09:16:39;;;;;;;1.83;1.50;;;;;;;;;;10482325;28;20220;-75
2021/06/29 09:21:42;;;;;;;6.13;1.70;;;;;;;;;;10475087;28;20208;-73
2021/06/29 09:26:44;;;;;;;2.90;1.60;;;;;;;;;;10481248;28;20683;-74
2021/06/29 09:31:56;;;;;;;2.60;1.50;;;;;;;;;;10486428;28;20240;-73
2021/06/29 09:36:59;;;;;;;1.73;1.48;;;;;;;;;;10482802;28;20220;-73
2021/06/29 09:42:03;;;;;;;1.50;1.40;;;;;;;;;;10484471;28;20319;-73
2021/06/29 09:47:20;;;;;;;2.25;1.58;;;;;;;;;;10482364;28;20184;-74
2021/06/29 09:52:32;;;;;;;2.47;1.30;;;;;;;;;;10483736;28;20224;-74
2021/06/29 09:57:35;;;;;;;1.85;1.65;;;;;;;;;;10491756;28;20231;-73
2021/06/29 10:02:40;;;;;;;1.98;1.40;;;;;;;;;;10504789;28;20212;-75
2021/06/29 10:07:44;;;;;;;2.05;1.50;;;;;;;;;;10495874;28;20663;-75
2021/06/29 10:12:50;;;;;;;2.30;1.60;;;;;;;;;;10496565;28;20212;-74
2021/06/29 10:17:53;;;;;;;2.05;1.50;;;;;;;;;;10497378;28;20239;-74
2021/06/29 10:22:57;;;;;;;2.55;1.50;;;;;;;;;;10498869;28;20895;-75
2021/06/29 10:28:00;;;;;;;3.05;1.60;;;;;;;;;;10487089;28;20371;-73
2021/06/29 10:33:03;;;;;;;1.65;1.50;;;;;;;;;;10483643;28;20285;-73
2021/06/29 10:38:08;;;;;;;2.17;1.40;;;;;;;;;;10490884;28;20191;-74
2021/06/29 10:43:11;;;;;;;1.73;1.50;;;;;;;;;;10510479;28;20814;-73
2021/06/29 10:48:17;;;;;;;2.53;1.55;;;;;;;;;;10501133;28;20242;-74
2021/06/29 10:53:38;;;;;;;2.03;1.60;;;;;;;;;;10481024;28;20222;-75
2021/06/29 10:58:41;;;;;;;1.95;1.70;;;;;;;;;;10500293;28;20206;-74
2021/06/29 11:03:44;;;;;;;2.33;1.75;;;;;;;;;;10502187;28;20189;-75
2021/06/29 11:08:48;;;;;;;4.57;1.90;;;;;;;;;;10495749;28;20270;-74
2021/06/29 11:13:51;;;;;;;2.42;1.75;;;;;;;;;;10491509;28;20251;-74
2021/06/29 11:18:54;;;;;;;2.42;1.67;;;;;;;;;;10489720;28;20208;-73
2021/06/29 11:23:58;;;;;;;2.08;1.70;;;;;;;;;;10488940;28;20297;-74
2021/06/29 11:29:01;;;;;;;2.28;1.63;;;;;;;;;;10486629;28;20636;-73
2021/06/29 11:34:06;;;;;;;2.00;1.80;;;;;;;;;;10486465;28;20313;-74
2021/06/29 11:39:33;;;;;;;2.00;1.80;;;;;;;;;;10503854;28;20216;-74
2021/06/29 11:44:41;;;;;;;2.00;1.73;;;;;;;;;;10484353;28;20196;-73
2021/06/29 11:49:45;;;;;;;2.55;1.80;;;;;;;;;;10481947;28;20655;-74
2021/06/29 11:54:52;;;;;;;1.85;1.63;;;;;;;;;;10492918;28;20279;-74
2021/06/29 11:59:55;;;;;;;1.95;1.75;;;;;;;;;;10479343;28;20216;-72
2021/06/29 12:05:27;;;;;;;2.20;1.90;;;;;;;;;;10485120;28;20220;-75
2021/06/29 12:10:32;;;;;;;1.98;1.70;;;;;;;;;;10487802;28;20362;-74
2021/06/29 12:15:35;;;;;;;3.58;1.80;;;;;;;;;;10488481;28;20235;-75
2021/06/29 12:20:40;;;;;;;2.17;1.88;;;;;;;;;;10497826;28;20236;-74
2021/06/29 12:25:44;;;;;;;2.22;1.65;;;;;;;;;;10502148;28;20204;-75
2021/06/29 12:30:48;;;;;;;1.95;1.65;;;;;;;;;;10488684;28;20212;-75
2021/06/29 12:35:52;;;;;;;2.10;1.70;;;;;;;;;;10500995;28;20639;-74
2021/06/29 12:40:58;;;;;;;2.08;1.80;;;;;;;;;;10489637;28;20212;-76
2021/06/29 12:46:14;;;;;;;1.88;1.73;;;;;;;;;;10494095;28;20191;-74
2021/06/29 12:51:17;;;;;;;4.30;1.90;;;;;;;;;;10485767;28;20248;-74
2021/06/29 12:56:21;;;;;;;2.40;1.80;;;;;;;;;;10499302;28;20239;-75
2021/06/29 13:01:24;;;;;;;3.17;2.00;;;;;;;;;;10491200;28;20236;-74
2021/06/29 13:06:29;;;;;;;1.60;1.45;;;;;;;;;;10497089;28;20672;-75
2021/06/29 13:11:35;;;;;;;4.38;1.80;;;;;;;;;;10497581;28;20311;-74
2021/06/29 13:16:39;;;;;;;2.22;1.90;;;;;;;;;;10499791;28;20219;-73
2021/06/29 13:21:42;;;;;;;2.95;1.77;;;;;;;;;;10494684;28;20510;-74
2021/06/29 13:26:54;;;;;;;3.15;1.90;;;;;;;;;;10504962;28;20695;-72
2021/06/29 13:32:01;;;;;;;2.15;1.80;;;;;;;;;;10495293;28;20302;-74
2021/06/29 13:37:16;;;;;;;3.05;1.90;;;;;;;;;;10502818;28;20204;-72
2021/06/29 13:42:21;;;;;;;2.25;1.90;;;;;;;;;;10496431;28;20219;-74
2021/06/29 13:47:24;;;;;;;3.53;2.08;;;;;;;;;;10498419;28;20207;-74
2021/06/29 13:52:28;;;;;;;5.13;2.30;;;;;;;;;;10488646;28;20215;-75
2021/06/29 13:57:32;;;;;;;4.25;2.00;;;;;;;;;;10492248;28;20633;-73
2021/06/29 14:02:36;;;;;;;4.13;2.28;;;;;;;;;;10494733;28;20291;-73
2021/06/29 14:07:39;;;;;;;4.13;1.90;;;;;;;;;;10490938;28;20725;-74
2021/06/29 14:12:43;;;;;;;4.30;2.08;;;;;;;;;;10490141;28;20331;-75
2021/06/29 14:17:46;;;;;;;4.15;2.25;;;;;;;;;;10492779;28;20573;-75
2021/06/29 14:22:49;;;;;;;2.30;1.92;;;;;;;;;;10486217;28;20231;-74
2021/06/29 14:27:54;;;;;;;3.33;2.00;;;;;;;;;;10497183;28;20196;-74
2021/06/29 14:32:58;;;;;;;3.20;1.90;;;;;;;;;;10488569;28;20710;-75
2021/06/29 14:38:03;;;;;;;3.70;2.00;;;;;;;;;;10493203;28;20224;-74
2021/06/29 14:43:08;;;;;;;4.38;1.83;;;;;;;;;;10495820;28;20216;-74
2021/06/29 14:48:11;;;;;;;4.03;2.10;;;;;;;;;;10493282;28;20656;-74
2021/06/29 14:53:15;;;;;;;2.85;1.90;;;;;;;;;;10491326;28;20243;-73
2021/06/29 14:58:19;;;;;;;5.93;1.90;;;;;;;;;;10497214;28;20217;-73
2021/06/29 15:14:28;;;;;;;3.03;0.93;;;;;;;;;;10356687;28;2423989;-72
2021/06/29 15:36:30;;;;;;;1.60;0.53;;;;;;;;;;10426068;28;20249;-72
2021/06/29 15:41:52;;;;;;;3.23;1.30;;;;;;;;;;10431267;28;20229;-74
2021/06/29 15:47:35;;;;;;;1.60;0.90;;;;;;;;;;10415194;28;20644;-72
2021/06/29 15:53:13;;;;;;;3.00;1.00;;;;;;;;;;10424874;28;20215;-74
2021/06/29 15:58:19;;;;;;;2.23;1.10;;;;;;;;;;10409086;28;20217;-71
2021/06/29 16:03:31;;;;;;;2.60;1.40;;;;;;;;;;10418432;28;20731;-74
2021/06/29 16:08:37;;;;;;;2.73;1.10;;;;;;;;;;10397599;28;20570;-71
2021/06/29 16:13:41;;;;;;;2.37;1.10;;;;;;;;;;10400255;28;20240;-73
2021/06/29 16:18:48;;;;;;;2.20;1.13;;;;;;;;;;10405857;28;20218;-74
2021/06/29 16:23:52;;;;;;;2.70;1.20;;;;;;;;;;10404776;28;20281;-73
2021/06/29 16:28:58;;;;;;;3.37;1.60;;;;;;;;;;10406340;28;20189;-74
2021/06/29 16:34:03;;;;;;;3.47;1.57;;;;;;;;;;10399551;28;20296;-72
2021/06/29 16:39:10;;;;;;;3.03;1.20;;;;;;;;;;10419759;28;20764;-72
2021/06/29 16:44:15;;;;;;;1.13;1.00;;;;;;;;;;10420152;28;20514;-73
2021/06/29 16:49:21;;;;;;;4.07;1.20;;;;;;;;;;10402084;28;20237;-74
2021/06/29 16:54:25;;;;;;;5.93;2.73;;;;;;;;;;10397854;28;20206;-72
2021/06/29 16:59:31;;;;;;;3.63;1.60;;;;;;;;;;10401490;28;20225;-73
2021/06/29 17:04:44;;;;;;;3.30;1.40;;;;;;;;;;10400519;28;20283;-72
2021/06/29 17:09:53;;;;;;;2.57;1.23;;;;;;;;;;10400989;28;20585;-70
2021/06/29 17:15:02;;;;;;;2.97;1.70;;;;;;;;;;10399303;28;20217;-72
2021/06/29 17:20:09;;;;;;;2.83;1.50;;;;;;;;;;10401549;28;20209;-73
2021/06/29 17:25:13;;;;;;;3.00;1.40;;;;;;;;;;10417219;28;20222;-73
2021/06/29 17:30:16;;;;;;;4.47;1.60;;;;;;;;;;10417982;28;20262;-72
2021/06/29 17:35:21;;;;;;;6.27;2.93;;;;;;;;;;10403642;28;20592;-73
2021/06/29 17:40:25;;;;;;;5.50;2.70;;;;;;;;;;10401487;28;20225;-73
2021/06/29 17:45:45;;;;;;;4.37;2.40;;;;;;;;;;10399370;28;20259;-72
2021/06/29 17:50:54;;;;;;;3.07;1.60;;;;;;;;;;10416118;28;20213;-70
2021/06/29 17:55:58;;;;;;;3.60;1.60;;;;;;;;;;10414380;28;20305;-72
2021/06/29 18:01:07;;;;;;;3.70;1.50;;;;;;;;;;10400548;28;20289;-73
2021/06/29 18:06:22;;;;;;;8.13;3.17;;;;;;;;;;10398282;28;20633;-73
2021/06/29 18:11:44;;;;;;;4.03;1.63;;;;;;;;;;10398473;28;20380;-72
2021/06/29 18:16:50;;;;;;;3.23;1.50;;;;;;;;;;10396877;28;20279;-73
2021/06/29 18:21:54;;;;;;;2.37;1.60;;;;;;;;;;10428375;28;20304;-74
2021/06/29 18:26:59;;;;;;;3.27;1.63;;;;;;;;;;10407659;28;20281;-69
2021/06/29 18:32:03;;;;;;;3.20;1.40;;;;;;;;;;10406734;28;20240;-72
2021/06/29 18:37:08;;;;;;;3.57;1.60;;;;;;;;;;10402668;28;20210;-72
2021/06/29 18:42:11;;;;;;;3.73;1.87;;;;;;;;;;10406120;28;20269;-72
2021/06/29 18:47:15;;;;;;;3.13;1.60;;;;;;;;;;10406146;28;20197;-71
2021/06/29 18:52:19;;;;;;;2.20;1.47;;;;;;;;;;10417196;28;20757;-73
2021/06/29 18:57:22;;;;;;;2.77;1.60;;;;;;;;;;10409900;28;20554;-72
2021/06/29 19:02:24;;;;;;;4.17;1.73;;;;;;;;;;10407352;28;20237;-73
2021/06/29 19:07:28;;;;;;;2.50;1.10;;;;;;;;;;10407647;28;20736;-72
2021/06/29 19:12:31;;;;;;;4.90;2.37;;;;;;;;;;10406144;28;20296;-74
2021/06/29 19:17:34;;;;;;;3.73;1.90;;;;;;;;;;10407330;28;20217;-73
2021/06/29 19:22:38;;;;;;;3.33;1.73;;;;;;;;;;10401958;28;20241;-72
2021/06/29 19:27:42;;;;;;;3.80;1.70;;;;;;;;;;10404192;28;20208;-73
2021/06/29 19:32:46;;;;;;;2.70;1.50;;;;;;;;;;10421442;28;20271;-72
2021/06/29 19:37:49;;;;;;;3.00;1.60;;;;;;;;;;10406670;28;20718;-72
2021/06/29 19:42:52;;;;;;;2.17;1.07;;;;;;;;;;10406736;28;20237;-73
2021/06/29 19:47:54;;;;;;;1.77;1.30;;;;;;;;;;10407242;28;20186;-72
2021/06/29 19:53:01;;;;;;;4.80;2.27;;;;;;;;;;10402017;28;20252;-73
2021/06/29 19:58:06;;;;;;;2.70;1.70;;;;;;;;;;10408552;28;20201;-73
2021/06/29 20:03:08;;;;;;;2.77;1.30;;;;;;;;;;10404380;28;20519;-73
2021/06/29 20:08:14;;;;;;;2.73;1.50;;;;;;;;;;10406775;28;20190;-72
2021/06/29 20:13:16;;;;;;;3.23;1.70;;;;;;;;;;10399938;28;20308;-73
2021/06/29 20:18:19;;;;;;;1.93;1.50;;;;;;;;;;10400414;28;20661;-73
2021/06/29 20:23:24;;;;;;;2.73;1.73;;;;;;;;;;10405034;28;20220;-71
2021/06/29 20:28:27;;;;;;;2.53;1.60;;;;;;;;;;10407800;28;20236;-72
2021/06/29 20:33:31;;;;;;;1.60;1.30;;;;;;;;;;10404526;28;20245;-71
2021/06/29 20:38:35;;;;;;;2.13;1.60;;;;;;;;;;10394310;28;20456;-71
2021/06/29 20:43:37;;;;;;;4.30;1.87;;;;;;;;;;10407313;28;20317;-71
2021/06/29 20:48:40;;;;;;;3.47;1.60;;;;;;;;;;10405429;28;20267;-72
2021/06/29 20:53:44;;;;;;;2.63;1.57;;;;;;;;;;10404404;28;20269;-71
2021/06/29 20:58:46;;;;;;;9.47;5.53;;;;;;;;;;10403194;28;20927;-70
2021/06/29 21:03:49;;;;;;;2.97;1.90;;;;;;;;;;10404389;28;20232;-71
2021/06/29 21:08:54;;;;;;;2.27;1.40;;;;;;;;;;10401605;28;20189;-71
2021/06/29 21:13:58;;;;;;;2.57;1.30;;;;;;;;;;10402845;28;20312;-70
2021/06/29 21:19:05;;;;;;;2.43;1.60;;;;;;;;;;10398389;28;20206;-71
2021/06/29 21:24:14;;;;;;;2.70;1.77;;;;;;;;;;10400484;28;20573;-71
2021/06/29 21:29:22;;;;;;;4.63;1.70;;;;;;;;;;10400337;28;20222;-71
2021/06/29 21:34:29;;;;;;;3.10;1.70;;;;;;;;;;10402602;28;20315;-70
2021/06/29 21:39:38;;;;;;;3.00;1.70;;;;;;;;;;10396982;28;20638;-71
2021/06/29 21:44:45;;;;;;;3.63;1.60;;;;;;;;;;10397587;28;20197;-70
2021/06/29 21:49:53;;;;;;;2.33;1.50;;;;;;;;;;10396394;28;20300;-70
2021/06/29 21:55:02;;;;;;;3.00;1.70;;;;;;;;;;10401949;28;20684;-70
2021/06/29 22:00:12;;;;;;;3.27;1.77;;;;;;;;;;10403039;28;20284;-70
2021/06/29 22:05:20;;;;;;;2.53;1.53;;;;;;;;;;10401234;28;20280;-70
2021/06/29 22:10:24;;;;;;;5.77;2.20;;;;;;;;;;10400903;28;20232;-69
2021/06/29 22:15:26;;;;;;;4.63;1.93;;;;;;;;;;10400609;28;20205;-71
2021/06/29 22:20:34;;;;;;;3.80;2.10;;;;;;;;;;10402492;28;20678;-72
2021/06/29 22:25:43;;;;;;;3.70;1.90;;;;;;;;;;10399647;28;20665;-72
2021/06/29 22:30:50;;;;;;;3.70;1.90;;;;;;;;;;10402399;28;20504;-72
2021/06/29 22:35:58;;;;;;;4.57;2.20;;;;;;;;;;10402952;28;20190;-72
2021/06/29 22:41:06;;;;;;;4.53;1.80;;;;;;;;;;10399062;28;20217;-73
2021/06/29 22:46:09;;;;;;;2.30;1.57;;;;;;;;;;10403218;28;20229;-73
2021/06/29 22:51:17;;;;;;;3.43;1.63;;;;;;;;;;10400170;28;20662;-71
2021/06/29 22:56:26;;;;;;;3.87;1.87;;;;;;;;;;10400043;28;20198;-72
2021/06/29 23:01:34;;;;;;;4.70;1.80;;;;;;;;;;10403349;28;20241;-72
2021/06/29 23:06:41;;;;;;;3.00;1.60;;;;;;;;;;10400326;28;20525;-71
2021/06/29 23:11:50;;;;;;;3.20;1.60;;;;;;;;;;10408054;28;20253;-72
2021/06/29 23:16:53;;;;;;;3.77;1.83;;;;;;;;;;10408589;28;20296;-72
2021/06/29 23:21:55;;;;;;;2.63;1.53;;;;;;;;;;10407066;28;20268;-72
2021/06/29 23:26:59;;;;;;;2.60;1.60;;;;;;;;;;10405998;28;20201;-72
2021/06/29 23:32:07;;;;;;;3.83;1.70;;;;;;;;;;10408074;28;20209;-72
2021/06/29 23:37:14;;;;;;;1.97;1.50;;;;;;;;;;10411589;28;20225;-72
2021/06/29 23:42:23;;;;;;;2.23;1.40;;;;;;;;;;10406707;28;20287;-72
2021/06/29 23:47:30;;;;;;;2.73;1.60;;;;;;;;;;10409546;28;20178;-72
2021/06/29 23:52:38;;;;;;;4.13;1.60;;;;;;;;;;10407200;28;20566;-72
2021/06/29 23:57:47;;;;;;;2.43;1.70;;;;;;;;;;10402867;28;20216;-71
